Cary, NC (27519)

12:05 AM EST on February 08, 2016 (GMT -0500)
Pine Valley | | Change Station
CLOSE
Current Station
Personal Weather Station
Location: Cary, NC
Elevation: 486 ft
Nearby Weather Stations

Elev 486 ft 35.78 °N, 78.79 °W | Updated 6 seconds ago

Mostly Cloudy
Mostly Cloudy
38.2 °F
Feels Like 38 °F
N
1.1
Wind Variable Wind from NE
Gusts 1.6 mph

Today
High -- | Low -- °F
--% Chance of Precip.
Yesterday
High -- | Low -- °F
Precip. -- in
Pressure 29.84 in
Visibility 10.0 miles
Clouds Few 12000 ft
Mostly Cloudy 24000 ft
Windchill 38 °F
Dew Point 23 °F
Humidity 54%
Rainfall 0.00 in
Snow Depth Not available.
7:09 AM 5:49 PM
Waning Crescent, 0% visible
METAR KRDU 080451Z VRB03KT 10SM FEW120 BKN240 04/M06 A2983 RMK AO2 SLP103 T00391061 400670028 $
Pressure 29.84 in
Visibility 10.0 miles
Clouds Few 12000 ft
Mostly Cloudy 24000 ft
Windchill 38 °F
Dew Point 23 °F
Humidity 54%
Rainfall 0.00 in
Snow Depth Not available.
7:09 AM 5:49 PM
Waning Crescent, 0% visible
METAR KRDU 080451Z VRB03KT 10SM FEW120 BKN240 04/M06 A2983 RMK AO2 SLP103 T00391061 400670028 $

10-Day Weather Forecast

Almanac

Astronomy

Feb. 08, 2016 Rise Set
Actual Time
Civil Twilight
Nautical Twilight
Astronomical Twilight
Moon
Length of Visible Light
Length of Day
Tomorrow will be .
, % of the Moon is Illuminated

Today's Extremes

State Highs State Lows

Community

WunderPhotos

Upload Photos

1,891,382 photos uploaded!

WunderBlog® & News

Nearby

Air Quality

  Air Quality AQ Index Pollutant
Not available.

Snow Depth

Station Depth Elevation

Earthquake Activity

City Distance Mag. Time & Date
Minimum magnitude displayed is 2.5.

Coastal Water Temperatures

Place Temperature

Stations

Nearby Weather Stations

Station Location Temp. Windchill Dew Point Humidity Wind Precip. Elev Updated Type
                   

Watches & Warnings

There are currently no watches in effect.